Time;durP1;ratioP1;P1;durP2;ratioP2;P2;SDS_P1;SDS_P2;PMS_P1;PMS_P2;Temp;Humidity;BMP_temperature;BMP_pressure;BME280_temperature;BME280_humidity;BME280_pressure;Samples;Min_cycle;Max_cycle;Signal;HPM_P1;HPM_P2
2023/05/08 04:22:34;;;;;;;26.05;11.75;;;;;;;14.88;100.00;100563.69;5109863;27;20749;-67
2023/05/08 04:25:02;;;;;;;36.20;13.10;;;;;;;14.91;100.00;100558.75;5108664;28;20495;-67
2023/05/08 04:27:29;;;;;;;27.77;11.60;;;;;;;14.93;100.00;100559.41;5108150;28;20043;-67
2023/05/08 04:29:56;;;;;;;30.30;11.82;;;;;;;14.97;100.00;100559.84;5108478;28;20089;-67
2023/05/08 04:32:23;;;;;;;24.55;11.50;;;;;;;15.00;100.00;100561.31;5109734;28;20480;-68
2023/05/08 04:34:49;;;;;;;22.95;10.30;;;;;;;15.03;100.00;100564.44;5108720;28;20392;-67
2023/05/08 04:37:23;;;;;;;28.48;11.70;;;;;;;15.06;100.00;100568.56;5107949;28;20454;-68
2023/05/08 04:39:50;;;;;;;26.80;11.80;;;;;;;15.08;100.00;100571.91;5108342;28;20040;-67
2023/05/08 04:42:16;;;;;;;27.58;11.25;;;;;;;15.12;100.00;100565.09;5108187;28;20031;-67
2023/05/08 04:44:41;;;;;;;22.92;9.88;;;;;;;15.11;100.00;100568.81;5109525;28;20036;-68
2023/05/08 04:47:07;;;;;;;23.45;10.75;;;;;;;15.16;100.00;100569.91;5108178;28;20058;-66
2023/05/08 04:49:32;;;;;;;30.90;13.35;;;;;;;15.18;100.00;100572.38;5109437;28;20063;-67
2023/05/08 04:51:58;;;;;;;32.97;14.38;;;;;;;15.21;100.00;100574.69;5108065;28;20035;-67
2023/05/08 04:54:23;;;;;;;32.78;13.27;;;;;;;15.21;100.00;100574.69;5108057;28;20088;-67
2023/05/08 04:56:49;;;;;;;36.65;15.65;;;;;;;15.25;100.00;100575.09;5108991;28;20051;-67
2023/05/08 04:59:14;;;;;;;26.60;12.98;;;;;;;15.29;100.00;100576.38;5109311;28;20455;-66
2023/05/08 05:01:40;;;;;;;23.83;10.88;;;;;;;15.32;100.00;100579.53;5109108;28;20503;-67
2023/05/08 05:04:06;;;;;;;30.17;14.07;;;;;;;15.35;100.00;100578.28;5107867;28;20032;-68
2023/05/08 05:06:32;;;;;;;28.27;12.50;;;;;;;15.34;100.00;100582.81;5108884;28;20092;-67
2023/05/08 05:08:58;;;;;;;26.23;12.77;;;;;;;15.35;100.00;100584.47;5107461;28;20058;-66
2023/05/08 05:11:23;;;;;;;24.60;11.63;;;;;;;15.35;100.00;100597.06;5107725;28;20477;-67
2023/05/08 05:13:49;;;;;;;21.80;10.85;;;;;;;15.37;100.00;100592.31;5107649;28;20500;-67
2023/05/08 05:16:14;;;;;;;25.02;10.70;;;;;;;15.40;100.00;100600.00;5107555;28;20516;-67
2023/05/08 05:18:40;;;;;;;24.30;10.55;;;;;;;15.39;100.00;100606.41;5108546;28;20481;-67
2023/05/08 05:21:05;;;;;;;25.52;11.75;;;;;;;15.37;100.00;100597.69;5107372;28;20040;-67
2023/05/08 05:23:31;;;;;;;26.73;11.15;;;;;;;15.39;100.00;100603.72;5090657;28;20043;-67
2023/05/08 05:25:57;;;;;;;24.70;11.18;;;;;;;15.38;100.00;100597.50;5108739;28;20483;-67
2023/05/08 05:28:22;;;;;;;23.73;11.88;;;;;;;15.34;100.00;100606.97;5107086;28;20047;-65
2023/05/08 05:30:48;;;;;;;29.73;12.60;;;;;;;15.35;100.00;100605.94;5108636;28;20058;-67
2023/05/08 05:33:14;;;;;;;29.75;11.90;;;;;;;15.34;100.00;100609.66;5097536;28;20036;-67
2023/05/08 05:35:39;;;;;;;31.90;12.60;;;;;;;15.33;100.00;100608.00;5093540;28;20138;-67
2023/05/08 05:38:04;;;;;;;33.13;13.25;;;;;;;15.34;100.00;100606.97;5093399;28;20047;-68
2023/05/08 05:40:30;;;;;;;29.15;11.52;;;;;;;15.33;100.00;100613.38;5093622;28;20598;-67
2023/05/08 05:42:56;;;;;;;31.00;12.77;;;;;;;15.33;100.00;100609.88;5093381;28;20028;-67
2023/05/08 05:45:21;;;;;;;32.42;13.63;;;;;;;15.36;100.00;100618.34;5094667;28;20165;-67
2023/05/08 05:47:48;;;;;;;29.98;13.52;;;;;;;15.34;100.00;100611.53;5093096;28;20051;-66
2023/05/08 05:50:17;;;;;;;31.40;12.52;;;;;;;15.36;100.00;100610.28;5093186;28;20092;-66
2023/05/08 05:52:42;;;;;;;32.10;12.07;;;;;;;15.36;100.00;100614.84;5094659;28;20055;-67
2023/05/08 05:55:08;;;;;;;36.65;13.80;;;;;;;15.36;100.00;100618.34;5094467;28;20177;-67
2023/05/08 05:57:33;;;;;;;36.13;13.57;;;;;;;15.39;100.00;100617.97;5092947;28;20039;-66
2023/05/08 05:59:59;;;;;;;30.25;12.40;;;;;;;15.40;100.00;100616.94;5094380;28;20036;-67
2023/05/08 06:02:25;;;;;;;33.78;13.43;;;;;;;15.41;100.00;100618.59;5093119;28;20496;-66
2023/05/08 06:04:51;;;;;;;32.47;12.77;;;;;;;15.41;100.00;100617.75;5092944;28;20051;-67
2023/05/08 06:07:16;;;;;;;32.20;13.13;;;;;;;15.39;100.00;100615.28;5093989;28;20047;-66
2023/05/08 06:09:41;;;;;;;34.28;13.55;;;;;;;15.44;100.00;100623.56;5094242;28;20044;-65
2023/05/08 06:12:08;;;;;;;31.40;13.00;;;;;;;15.41;100.00;100617.75;5094198;28;20057;-67
2023/05/08 06:14:34;;;;;;;37.50;13.77;;;;;;;15.43;100.00;100627.28;5093028;28;20036;-67
2023/05/08 06:16:59;;;;;;;44.67;15.52;;;;;;;15.45;100.00;100627.94;5092564;28;20043;-67
2023/05/08 06:19:25;;;;;;;37.65;15.25;;;;;;;15.43;100.00;100632.63;5092773;28;20040;-68
2023/05/08 06:21:51;;;;;;;41.80;14.93;;;;;;;15.47;100.00;100625.03;5092570;28;20068;-67
2023/05/08 06:24:16;;;;;;;40.55;14.63;;;;;;;15.48;100.00;100630.19;5094037;28;20051;-66
2023/05/08 06:26:41;;;;;;;46.42;15.27;;;;;;;15.53;100.00;100632.31;5093909;28;20040;-67
2023/05/08 06:29:07;;;;;;;39.58;14.88;;;;;;;15.54;100.00;100631.28;5093745;28;20408;-67
2023/05/08 06:31:32;;;;;;;44.17;15.85;;;;;;;15.55;100.00;100635.63;5093758;28;20137;-67
2023/05/08 06:33:58;;;;;;;45.83;15.07;;;;;;;15.54;100.00;100628.59;5093777;28;20047;-67
2023/05/08 06:36:23;;;;;;;43.45;16.83;;;;;;;15.54;100.00;100623.22;5093718;28;20074;-67
2023/05/08 06:38:48;;;;;;;46.97;17.90;;;;;;;15.58;100.00;100631.69;5093391;28;20404;-67
2023/05/08 06:41:14;;;;;;;48.95;16.38;;;;;;;15.60;100.00;100633.19;5093755;28;20040;-67
2023/05/08 06:43:39;;;;;;;44.50;14.40;;;;;;;15.62;100.00;100631.16;5093100;28;20044;-67
2023/05/08 06:46:05;;;;;;;44.05;16.02;;;;;;;15.62;100.00;100635.69;5093269;28;20040;-66
2023/05/08 06:48:30;;;;;;;40.25;14.32;;;;;;;15.62;100.00;100633.84;5093309;28;20043;-67
2023/05/08 06:50:56;;;;;;;40.90;15.18;;;;;;;15.63;100.00;100637.34;5092204;28;20044;-67
2023/05/08 06:53:21;;;;;;;42.67;14.98;;;;;;;15.64;100.00;100634.47;5092254;28;20481;-66
2023/05/08 06:55:46;;;;;;;42.72;14.85;;;;;;;15.67;100.00;100634.09;5092099;28;20400;-67
2023/05/08 06:58:12;;;;;;;43.20;16.33;;;;;;;15.64;100.00;100631.78;5093094;28;20477;-68
2023/05/08 07:00:37;;;;;;;45.72;16.67;;;;;;;15.71;100.00;100630.00;5093367;28;20024;-66
2023/05/08 07:03:03;;;;;;;38.70;14.57;;;;;;;15.69;100.00;100629.34;5092094;28;20038;-67
2023/05/08 07:05:28;;;;;;;43.05;16.60;;;;;;;15.77;100.00;100636.41;5093192;28;20036;-67
2023/05/08 07:07:53;;;;;;;40.80;15.15;;;;;;;15.76;100.00;100626.69;5092963;28;20519;-66
2023/05/08 07:10:21;;;;;;;42.08;14.82;;;;;;;15.89;100.00;100637.50;5092919;28;20048;-67
2023/05/08 07:12:47;;;;;;;37.35;14.20;;;;;;;15.92;100.00;100636.28;5093058;28;20043;-68
2023/05/08 07:15:13;;;;;;;25.58;12.27;;;;;;;15.95;100.00;100628.66;5092988;28;20036;-67
2023/05/08 07:17:39;;;;;;;25.15;11.82;;;;;;;15.89;100.00;100642.88;5092734;28;20104;-67
2023/05/08 07:20:05;;;;;;;28.05;12.77;;;;;;;15.98;100.00;100627.44;5092917;28;20447;-67
2023/05/08 07:22:30;;;;;;;26.02;12.10;;;;;;;15.95;100.00;100631.34;5092904;28;20487;-66
2023/05/08 07:24:55;;;;;;;31.15;13.85;;;;;;;15.97;100.00;100633.81;5092821;28;20039;-67
2023/05/08 07:27:21;;;;;;;30.00;12.43;;;;;;;16.00;100.00;100636.13;5092463;28;20040;-67
2023/05/08 07:29:46;;;;;;;30.70;11.40;;;;;;;16.02;100.00;100642.13;5092749;28;20501;-66
2023/05/08 07:32:11;;;;;;;34.90;13.25;;;;;;;16.06;100.00;100642.56;5092720;28;20036;-68
2023/05/08 07:34:37;;;;;;;28.52;11.80;;;;;;;16.10;100.00;100644.63;5092734;28;20032;-67
2023/05/08 07:37:02;;;;;;;31.13;13.48;;;;;;;16.09;100.00;100642.16;5092301;28;20040;-68
2023/05/08 07:39:28;;;;;;;26.23;12.30;;;;;;;16.01;100.00;100633.22;5092584;28;20043;-68
2023/05/08 07:41:53;;;;;;;33.88;13.63;;;;;;;16.14;100.00;100647.75;5092598;28;20397;-68
2023/05/08 07:44:18;;;;;;;32.67;13.25;;;;;;;16.16;100.00;100649.22;5092632;28;20038;-67
2023/05/08 07:46:44;;;;;;;32.15;14.75;;;;;;;16.10;100.00;100641.13;5092373;28;20051;-67
2023/05/08 07:49:09;;;;;;;35.45;13.77;;;;;;;16.06;100.00;100654.13;5092235;28;20039;-68
2023/05/08 07:51:35;;;;;;;34.50;14.52;;;;;;;16.08;100.00;100648.56;5092416;28;20399;-66
2023/05/08 07:54:00;;;;;;;33.28;15.43;;;;;;;16.08;100.00;100649.38;5092268;28;20036;-66
2023/05/08 07:56:27;;;;;;;30.13;12.77;;;;;;;16.13;100.00;100657.69;5092088;28;20040;-66
2023/05/08 07:58:52;;;;;;;34.55;13.82;;;;;;;16.12;100.00;100653.34;5092065;28;20040;-67
2023/05/08 08:01:18;;;;;;;30.20;13.45;;;;;;;16.18;100.00;100657.09;5092283;28;20038;-67
2023/05/08 08:03:44;;;;;;;35.67;14.50;;;;;;;16.21;100.00;100651.31;5092161;28;20124;-67
2023/05/08 08:06:09;;;;;;;37.75;15.65;;;;;;;16.24;100.00;100645.53;5092155;28;20044;-67
2023/05/08 08:08:35;;;;;;;37.05;15.43;;;;;;;16.23;100.00;100649.22;5091850;28;20036;-66
2023/05/08 08:11:00;;;;;;;38.53;15.10;;;;;;;16.32;100.00;100653.44;5092342;28;20432;-67
2023/05/08 08:13:25;;;;;;;39.40;16.73;;;;;;;16.32;100.00;100649.91;5092184;28;20043;-67
2023/05/08 08:15:51;;;;;;;34.58;15.18;;;;;;;16.21;100.00;100656.69;5091995;28;20127;-66
2023/05/08 08:18:16;;;;;;;37.45;15.07;;;;;;;16.31;100.00;100656.31;5091887;28;20039;-68
2023/05/08 08:20:42;;;;;;;34.28;14.88;;;;;;;16.24;100.00;100645.53;5092161;28;20032;-68
2023/05/08 08:23:07;;;;;;;39.25;17.20;;;;;;;16.34;100.00;100650.53;5090787;28;20419;-67
2023/05/08 08:25:33;;;;;;;45.60;18.20;;;;;;;16.37;100.00;100650.97;5092036;28;20094;-67
2023/05/08 08:27:58;;;;;;;41.40;17.13;;;;;;;16.40;100.00;100655.94;5091712;28;20044;-67
2023/05/08 08:30:23;;;;;;;44.40;18.70;;;;;;;16.43;100.00;100660.91;5091830;28;20105;-67
2023/05/08 08:32:49;;;;;;;38.80;16.33;;;;;;;16.40;100.00;100658.63;5091988;28;20036;-68
2023/05/08 08:35:15;;;;;;;37.47;15.40;;;;;;;16.44;100.00;100662.56;5091861;28;20454;-67
2023/05/08 08:37:40;;;;;;;38.40;15.73;;;;;;;16.44;100.00;100651.00;5091604;28;20040;-68
2023/05/08 08:40:06;;;;;;;42.13;17.38;;;;;;;16.51;100.00;100662.59;5091845;28;20044;-68
2023/05/08 08:42:33;;;;;;;39.08;16.73;;;;;;;16.51;100.00;100658.03;5091815;28;20028;-67
2023/05/08 08:44:59;;;;;;;40.50;16.45;;;;;;;16.52;100.00;100653.50;5091890;28;20036;-67
2023/05/08 08:47:36;;;;;;;34.20;15.55;;;;;;;16.58;100.00;100657.25;5091439;28;20559;-68
2023/05/08 08:50:03;;;;;;;40.72;16.40;;;;;;;16.58;100.00;100659.94;5091726;28;20036;-66
2023/05/08 08:52:42;;;;;;;38.15;15.57;;;;;;;16.65;100.00;100661.59;5091517;28;20430;-67
2023/05/08 08:55:12;;;;;;;35.13;15.65;;;;;;;16.59;100.00;100653.50;5091533;28;20089;-67
2023/05/08 08:58:02;;;;;;;37.72;16.58;;;;;;;16.65;100.00;100658.91;5091483;28;20504;-66
2023/05/08 09:00:30;;;;;;;41.13;15.90;;;;;;;16.66;100.00;100660.56;5091713;28;20036;-67
2023/05/08 09:02:56;;;;;;;36.58;16.15;;;;;;;16.58;100.00;100657.25;5091612;28;20465;-68
2023/05/08 09:05:23;;;;;;;42.08;17.13;;;;;;;16.65;100.00;100663.47;5091499;28;20067;-68
2023/05/08 09:07:49;;;;;;;35.30;16.23;;;;;;;16.63;100.00;100665.53;5092557;28;20039;-66
2023/05/08 09:10:15;;;;;;;37.72;16.58;;;;;;;16.67;100.00;100664.91;5095351;28;20039;-67
2023/05/08 09:12:41;;;;;;;40.17;17.65;;;;;;;16.63;100.00;100655.59;5095458;28;20523;-67
2023/05/08 09:15:07;;;;;;;37.78;17.27;;;;;;;16.66;100.00;100670.50;5095164;28;20048;-67
2023/05/08 09:17:32;;;;;;;34.40;15.80;;;;;;;16.61;100.00;100668.41;5094985;28;20067;-67
2023/05/08 09:19:58;;;;;;;39.60;16.65;;;;;;;16.73;100.00;100672.19;5093976;28;20063;-68
2023/05/08 09:22:25;;;;;;;41.42;17.02;;;;;;;16.79;100.00;100671.38;5095109;28;20043;-67
2023/05/08 09:24:59;;;;;;;50.10;20.05;;;;;;;16.84;100.00;100662.72;5095246;28;20089;-68
2023/05/08 09:27:26;;;;;;;37.58;15.52;;;;;;;16.83;100.00;100676.38;5094866;28;20032;-68
2023/05/08 09:30:06;;;;;;;39.08;17.10;;;;;;;16.97;100.00;100673.50;5095033;28;20032;-67
2023/05/08 09:32:33;;;;;;;32.10;14.05;;;;;;;17.04;100.00;100668.94;5094967;28;20040;-67
2023/05/08 09:34:59;;;;;;;36.10;15.65;;;;;;;17.06;100.00;100676.81;5095088;28;20085;-66
2023/05/08 09:37:26;;;;;;;40.15;16.80;;;;;;;17.18;100.00;100674.34;5094558;28;20046;-66
2023/05/08 09:39:53;;;;;;;35.53;15.98;;;;;;;17.25;100.00;100673.31;5094762;28;20493;-66
2023/05/08 09:42:18;;;;;;;39.05;17.50;;;;;;;17.27;100.00;100676.63;5094807;28;20119;-66
2023/05/08 09:44:53;;;;;;;33.22;15.02;;;;;;;17.35;100.00;100675.59;5094699;28;20127;-64
2023/05/08 09:47:23;;;;;;;38.60;17.00;;;;;;;17.45;100.00;100670.63;5094395;28;20036;-66
2023/05/08 09:50:02;;;;;;;39.00;15.20;;;;;;;17.57;100.00;100677.03;5094628;28;20130;-66
2023/05/08 09:52:28;;;;;;;36.25;16.15;;;;;;;17.63;100.00;100680.75;5094706;28;20648;-66
2023/05/08 09:55:02;;;;;;;36.88;14.85;;;;;;;17.70;100.00;100676.19;5094645;28;20038;-65
2023/05/08 09:57:30;;;;;;;34.08;16.20;;;;;;;17.75;100.00;100681.00;5094234;28;20085;-65
2023/05/08 10:00:06;;;;;;;30.65;14.85;;;;;;;17.69;100.00;100682.63;5094544;28;20229;-64
2023/05/08 10:02:33;;;;;;;35.10;15.30;;;;;;;17.79;100.00;100687.59;5094491;28;20120;-66
2023/05/08 10:04:58;;;;;;;32.60;14.95;;;;;;;17.84;100.00;100690.50;5094391;28;20077;-65
2023/05/08 10:07:31;;;;;;;34.17;15.70;;;;;;;17.93;100.00;100691.09;5093915;28;20032;-66
2023/05/08 10:09:59;;;;;;;32.00;14.55;;;;;;;17.96;100.00;100688.00;5094506;28;20071;-67
2023/05/08 10:12:25;;;;;;;35.30;15.07;;;;;;;17.99;100.00;100685.69;5094361;28;20048;-64
2023/05/08 10:14:51;;;;;;;33.47;13.90;;;;;;;17.99;100.00;100687.56;5094310;28;20119;-66
2023/05/08 10:17:23;;;;;;;29.35;13.75;;;;;;;18.00;100.00;100683.84;5092580;28;20393;-66
2023/05/08 10:19:54;;;;;;;36.63;15.25;;;;;;;17.99;100.00;100691.06;5093917;28;20040;-67
2023/05/08 10:22:23;;;;;;;31.13;15.13;;;;;;;17.97;100.00;100686.94;5094016;28;20036;-66
2023/05/08 10:24:54;;;;;;;33.72;16.20;;;;;;;17.88;100.00;100684.50;5094122;28;20039;-66
2023/05/08 10:27:26;;;;;;;32.08;14.73;;;;;;;17.85;100.00;100684.91;5093605;28;20059;-65
2023/05/08 10:29:55;;;;;;;29.90;13.88;;;;;;;17.72;100.00;100686.78;5093973;28;20438;-65
2023/05/08 10:32:23;;;;;;;31.48;15.50;;;;;;;17.80;100.00;100683.88;5093054;28;20089;-65
2023/05/08 10:34:52;;;;;;;30.67;14.90;;;;;;;17.87;100.00;100684.72;5093757;28;20032;-66
2023/05/08 10:37:18;;;;;;;29.92;14.35;;;;;;;17.91;100.00;100688.63;5093449;28;20036;-66
2023/05/08 10:39:44;;;;;;;30.45;14.52;;;;;;;17.93;100.00;100677.63;5093686;28;20032;-66
2023/05/08 10:42:12;;;;;;;30.17;14.63;;;;;;;17.94;100.00;100684.69;5094155;28;20098;-67
2023/05/08 10:44:39;;;;;;;26.40;13.32;;;;;;;18.03;100.00;100678.84;5093615;28;20044;-67
2023/05/08 10:47:19;;;;;;;27.13;12.63;;;;;;;17.79;100.00;100682.22;5093467;28;20401;-67
2023/05/08 10:50:18;;;;;;;30.10;13.48;;;;;;;17.71;100.00;100680.56;5093600;28;20039;-66
2023/05/08 10:52:53;;;;;;;26.85;13.40;;;;;;;17.80;100.00;100682.03;5093440;28;20505;-66
2023/05/08 10:55:24;;;;;;;25.67;12.82;;;;;;;17.61;100.00;100670.22;5093343;28;20031;-65
2023/05/08 10:58:01;;;;;;;24.88;12.65;;;;;;;17.69;100.00;100674.53;5092880;28;20542;-65
2023/05/08 11:00:30;;;;;;;;;;;;;;;17.80;100.00;100673.09;5093835;28;20464;-66
2023/05/08 11:03:04;;;;;;;18.70;10.55;;;;;;;17.60;100.00;100667.69;5092131;28;19908;-66
2023/05/08 11:05:30;;;;;;;23.73;12.32;;;;;;;17.31;100.00;100652.81;5092118;28;20067;-66
2023/05/08 11:07:57;;;;;;;25.10;12.48;;;;;;;17.52;100.00;100668.75;5092885;28;20074;-65
2023/05/08 11:10:29;;;;;;;25.80;12.67;;;;;;;17.58;100.00;100662.53;5093137;28;20027;-65
2023/05/08 11:12:56;;;;;;;24.63;12.38;;;;;;;17.58;100.00;100664.41;5093133;28;20750;-65
2023/05/08 11:15:38;;;;;;;20.55;11.02;;;;;;;17.59;100.00;100666.03;5093006;28;20101;-67
2023/05/08 11:18:10;;;;;;;24.40;10.40;;;;;;;17.72;100.00;100670.63;5092715;28;20089;-67
2023/05/08 11:20:54;;;;;;;20.55;10.18;;;;;;;17.89;100.00;100671.84;5092896;28;20536;-67
2023/05/08 11:23:27;;;;;;;19.92;10.60;;;;;;;17.93;100.00;100674.94;5092903;28;20447;-67
2023/05/08 11:26:03;;;;;;;22.88;9.02;;;;;;;17.86;100.00;100674.94;5092967;28;20079;-67
2023/05/08 11:28:38;;;;;;;19.45;9.60;;;;;;;17.78;100.00;100673.31;5092480;28;20085;-67
2023/05/08 11:31:05;;;;;;;18.55;9.05;;;;;;;17.90;100.00;100668.94;5092264;28;20035;-68
2023/05/08 11:33:32;;;;;;;20.92;8.90;;;;;;;17.58;100.00;100669.78;5092797;28;20039;-68
2023/05/08 11:35:59;;;;;;;17.15;9.73;;;;;;;17.93;100.00;100666.84;5091313;28;20067;-67
2023/05/08 11:38:35;;;;;;;19.27;8.85;;;;;;;18.08;100.00;100670.13;5092229;28;20042;-68
2023/05/08 11:41:03;;;;;;;14.68;9.45;;;;;;;18.15;100.00;100660.97;5092685;28;20089;-67
2023/05/08 11:43:31;;;;;;;17.15;8.57;;;;;;;18.24;100.00;100671.53;5092533;28;20101;-68
2023/05/08 11:46:03;;;;;;;16.25;8.60;;;;;;;18.35;100.00;100660.06;5092748;28;20050;-68
2023/05/08 11:48:30;;;;;;;17.10;8.43;;;;;;;18.58;100.00;100663.09;5092135;28;20032;-69
2023/05/08 11:50:55;;;;;;;14.85;8.18;;;;;;;18.56;100.00;100653.53;5092391;28;20023;-68
2023/05/08 11:53:21;;;;;;;15.23;7.57;;;;;;;18.54;100.00;100650.25;5092409;28;20052;-67
2023/05/08 11:55:52;;;;;;;10.70;6.97;;;;;;;18.68;100.00;100659.94;5092314;28;20028;-65
2023/05/08 11:58:17;;;;;;;14.38;8.05;;;;;;;18.56;100.00;100651.66;5091967;28;20481;-66
2023/05/08 12:00:44;;;;;;;12.02;7.65;;;;;;;18.51;100.00;100656.03;5092369;28;20090;-66
2023/05/08 12:03:14;;;;;;;15.95;8.38;;;;;;;18.38;100.00;100652.38;5092424;28;20040;-68
2023/05/08 12:05:40;;;;;;;16.08;8.93;;;;;;;18.25;100.00;100649.72;5092288;28;20442;-67
2023/05/08 12:08:07;;;;;;;14.85;8.63;;;;;;;17.94;100.00;100663.13;5091947;28;20063;-67
2023/05/08 12:10:40;;;;;;;17.87;8.93;;;;;;;17.96;100.00;100661.88;5092077;28;20039;-66
2023/05/08 12:13:21;;;;;;;12.60;7.28;;;;;;;17.95;100.00;100654.84;5092188;28;20126;-66
2023/05/08 12:15:48;;;;;;;13.15;7.53;;;;;;;18.00;100.00;100655.03;5092176;28;20137;-67
2023/05/08 12:18:15;;;;;;;12.35;7.15;;;;;;;18.28;100.00;100649.31;5091800;28;20067;-67
2023/05/08 12:20:41;;;;;;;11.70;6.15;;;;;;;18.35;100.00;100654.69;5091959;28;20040;-66
2023/05/08 12:23:09;;;;;;;11.35;6.57;;;;;;;18.42;100.00;100639.28;5092057;28;20036;-65
2023/05/08 12:25:37;;;;;;;7.82;5.15;;;;;;;18.53;100.00;100645.91;5092113;28;20497;-67
2023/05/08 12:28:02;;;;;;;11.27;6.50;;;;;;;18.26;100.00;100639.81;5091719;28;20036;-67
2023/05/08 12:30:28;;;;;;;8.27;5.53;;;;;;;18.62;100.00;100645.41;5091988;28;20035;-67
2023/05/08 12:32:54;;;;;;;10.55;6.28;;;;;;;18.67;100.00;100642.94;5091962;28;20032;-65
2023/05/08 12:35:20;;;;;;;8.68;5.40;;;;;;;18.90;100.00;100646.94;5091877;28;20044;-66
2023/05/08 12:37:46;;;;;;;10.90;5.55;;;;;;;19.07;100.00;100653.47;5091659;28;20040;-67
2023/05/08 12:40:30;;;;;;;7.13;4.28;;;;;;;19.06;100.00;100650.97;5092000;28;20046;-65
2023/05/08 12:42:56;;;;;;;6.10;4.45;;;;;;;19.17;100.00;100653.81;5093523;28;20457;-65
2023/05/08 12:45:26;;;;;;;6.75;4.50;;;;;;;19.25;100.00;100647.31;5095921;28;20048;-68
2023/05/08 12:47:55;;;;;;;10.45;5.25;;;;;;;19.45;99.87;100645.25;5095605;28;20422;-67
2023/05/08 12:50:21;;;;;;;10.30;5.63;;;;;;;19.67;100.00;100648.38;5094687;28;20522;-67
2023/05/08 12:52:47;;;;;;;9.00;5.50;;;;;;;20.62;96.68;100642.50;5095837;28;20042;-67
2023/05/08 12:55:26;;;;;;;8.65;5.55;;;;;;;21.60;91.81;100652.84;5095680;28;20036;-66
2023/05/08 12:58:00;;;;;;;9.80;6.10;;;;;;;21.51;88.04;100650.72;5095393;28;20047;-65
2023/05/08 13:00:35;;;;;;;8.75;5.28;;;;;;;21.54;86.34;100653.78;5095768;28;20044;-67
2023/05/08 13:03:00;;;;;;;10.40;5.40;;;;;;;21.23;88.96;100649.47;5095716;28;20032;-66
2023/05/08 13:05:26;;;;;;;10.65;6.00;;;;;;;21.27;89.85;100647.97;5095521;28;20124;-65
2023/05/08 13:07:57;;;;;;;9.68;6.20;;;;;;;20.74;92.33;100647.97;5095133;28;20059;-67
2023/05/08 13:10:22;;;;;;;8.45;5.45;;;;;;;21.04;90.20;100639.78;5095431;28;20475;-67
2023/05/08 13:12:48;;;;;;;10.55;5.72;;;;;;;21.08;90.36;100644.53;5095369;28;20032;-68
2023/05/08 13:15:13;;;;;;;6.78;4.68;;;;;;;21.37;88.87;100642.00;5094061;28;20040;-67
2023/05/08 13:17:38;;;;;;;8.77;5.13;;;;;;;21.30;85.65;100639.41;5095057;28;20051;-66
2023/05/08 13:20:05;;;;;;;10.15;6.18;;;;;;;21.23;86.82;100638.66;5095264;28;20560;-67
2023/05/08 13:22:30;;;;;;;7.70;4.85;;;;;;;21.19;86.65;100628.50;5095271;28;20042;-67
2023/05/08 13:24:55;;;;;;;7.60;4.57;;;;;;;21.22;89.65;100634.28;5095215;28;20123;-66
2023/05/08 13:27:21;;;;;;;8.80;4.38;;;;;;;20.96;90.13;100635.53;5094733;28;20071;-66
2023/05/08 13:29:46;;;;;;;8.98;4.70;;;;;;;20.67;92.94;100633.69;5095234;28;20126;-66
2023/05/08 13:32:12;;;;;;;7.13;5.10;;;;;;;20.32;94.07;100635.16;5093837;28;20138;-67
2023/05/08 13:34:37;;;;;;;6.75;4.95;;;;;;;20.46;92.63;100635.84;5095070;28;20036;-66
2023/05/08 13:37:03;;;;;;;8.52;4.22;;;;;;;20.32;94.36;100631.63;5094746;28;20500;-65
2023/05/08 13:39:30;;;;;;;5.18;3.17;;;;;;;20.03;87.59;100635.97;5094866;28;20081;-67
2023/05/08 13:41:56;;;;;;;5.47;3.45;;;;;;;20.12;89.40;100634.59;5094838;28;20044;-66
2023/05/08 13:44:21;;;;;;;5.15;3.63;;;;;;;19.91;89.01;100621.53;5094821;28;20051;-68
2023/05/08 13:46:47;;;;;;;4.88;3.40;;;;;;;19.90;87.45;100626.13;5094822;28;20035;-67
2023/05/08 13:49:12;;;;;;;6.50;3.65;;;;;;;20.04;88.09;100621.38;5094635;28;20040;-67
2023/05/08 13:51:38;;;;;;;7.47;4.13;;;;;;;19.93;89.35;100624.84;5094522;28;20074;-66
2023/05/08 13:54:03;;;;;;;5.63;3.22;;;;;;;20.18;88.51;100614.75;5094165;28;20401;-65
2023/05/08 13:56:28;;;;;;;5.65;3.45;;;;;;;20.26;88.83;100608.19;5094512;28;20036;-67
2023/05/08 13:58:54;;;;;;;5.45;4.05;;;;;;;20.02;89.52;100618.09;5094246;28;20124;-65
2023/05/08 14:01:19;;;;;;;5.38;4.15;;;;;;;20.19;89.52;100604.75;5094513;28;20036;-65
2023/05/08 14:03:44;;;;;;;8.57;5.68;;;;;;;19.64;93.39;100611.03;5094477;28;20047;-67
2023/05/08 14:06:10;;;;;;;7.47;4.80;;;;;;;19.93;91.75;100614.03;5094370;28;20059;-66
2023/05/08 14:08:35;;;;;;;9.57;4.70;;;;;;;20.03;88.12;100608.91;5094017;28;20039;-66
2023/05/08 14:11:01;;;;;;;6.15;4.70;;;;;;;19.78;90.11;100607.13;5094250;28;20139;-66
2023/05/08 14:13:26;;;;;;;7.28;4.95;;;;;;;19.84;88.53;100612.69;5094315;28;20507;-67
2023/05/08 14:15:51;;;;;;;5.38;3.70;;;;;;;20.08;89.05;100600.09;5094106;28;20036;-67
2023/05/08 14:18:17;;;;;;;8.75;5.07;;;;;;;19.98;90.95;100601.47;5093987;28;20505;-67
2023/05/08 14:20:42;;;;;;;6.93;4.82;;;;;;;20.16;90.70;100597.94;5093999;28;20481;-68
2023/05/08 14:23:07;;;;;;;6.93;4.75;;;;;;;20.23;91.00;100600.56;5094061;28;20044;-68
2023/05/08 14:25:33;;;;;;;8.82;5.28;;;;;;;20.26;91.26;100594.69;5093910;28;20040;-67
2023/05/08 14:27:58;;;;;;;10.02;5.63;;;;;;;20.29;90.03;100596.94;5093667;28;20044;-66
2023/05/08 14:30:24;;;;;;;8.10;5.57;;;;;;;20.33;89.96;100598.94;5093987;28;20509;-67
2023/05/08 14:32:49;;;;;;;9.68;5.78;;;;;;;20.02;90.12;100596.47;5093807;28;20583;-67
2023/05/08 14:35:15;;;;;;;8.85;5.95;;;;;;;19.98;91.76;100587.97;5093807;28;20046;-66
2023/05/08 14:37:40;;;;;;;9.43;5.50;;;;;;;20.12;90.99;100591.31;5093509;28;20047;-67
2023/05/08 14:40:06;;;;;;;8.88;6.00;;;;;;;20.11;90.79;100592.38;5093697;28;20036;-67
2023/05/08 14:42:32;;;;;;;10.35;5.78;;;;;;;20.03;91.23;100587.28;5093751;28;20081;-65
2023/05/08 14:44:58;;;;;;;9.15;5.72;;;;;;;20.03;91.35;100582.72;5093690;28;20040;-66
2023/05/08 14:47:23;;;;;;;10.80;6.68;;;;;;;19.91;90.54;100589.09;5093229;28;20111;-66
2023/05/08 14:49:49;;;;;;;10.75;6.50;;;;;;;20.08;89.20;100590.13;5093584;28;20463;-66
2023/05/08 14:52:14;;;;;;;11.02;6.10;;;;;;;20.03;88.60;100585.41;5093306;28;20052;-66
2023/05/08 14:54:40;;;;;;;8.52;5.97;;;;;;;20.25;88.61;100583.03;5093293;28;20044;-69
2023/05/08 14:57:05;;;;;;;10.65;6.45;;;;;;;20.19;89.12;100583.94;5092818;28;20028;-65
2023/05/08 14:59:30;;;;;;;10.05;5.60;;;;;;;20.24;89.98;100573.28;5093348;28;20047;-66
2023/05/08 15:01:56;;;;;;;9.15;5.88;;;;;;;20.44;88.23;100578.41;5093282;28;20035;-68
2023/05/08 15:04:21;;;;;;;10.65;6.47;;;;;;;20.57;86.23;100578.25;5093234;28;20626;-67
2023/05/08 15:06:47;;;;;;;9.98;6.63;;;;;;;20.44;86.63;100577.59;5092319;28;20032;-67
2023/05/08 15:09:12;;;;;;;8.82;5.55;;;;;;;20.50;86.94;100582.94;5093057;28;20438;-67
2023/05/08 15:11:38;;;;;;;10.50;6.45;;;;;;;20.63;84.89;100578.38;5092937;28;20036;-67
2023/05/08 15:14:04;;;;;;;9.02;6.38;;;;;;;20.53;84.96;100581.63;5093299;28;20043;-66
2023/05/08 15:16:29;;;;;;;10.45;6.00;;;;;;;20.59;85.89;100572.59;5092945;28;20032;-66
2023/05/08 15:18:55;;;;;;;9.15;6.13;;;;;;;20.65;87.66;100568.97;5092669;28;20039;-67
2023/05/08 15:21:24;;;;;;;10.32;6.68;;;;;;;20.76;87.03;100579.00;5092976;28;20039;-68
2023/05/08 15:23:52;;;;;;;8.52;5.70;;;;;;;20.62;88.03;100576.75;5092886;28;20044;-67
2023/05/08 15:26:17;;;;;;;8.95;5.90;;;;;;;20.47;85.76;100571.72;5093303;28;20101;-68
2023/05/08 15:28:43;;;;;;;10.77;6.40;;;;;;;20.27;86.97;100569.28;5092713;28;20048;-67
2023/05/08 15:31:09;;;;;;;14.65;6.18;;;;;;;20.24;87.83;100573.28;5092663;28;20039;-66